Monday, December 10, 2018, 10:24 PM EST
Back to Local

KMSV, Monticello, Sullivan County International Airport

Location: Swan Lake, NY, United States Lat: 41.7
Local Time: 10:24 PM EST ( 3:24 GMT) Lon: -74.8
Time Zone: US/Eastern Elev: 1404 ft

Show me the last for .
Show Coded

Time T Td Feel RH Dir Speed Gust Alt SLP Vis Weather Sky Remarks
2018-12-10 21:56 20 16 15 84 280° 3 - 30.12 30.18 10 CLR None
2018-12-10 20:56 21 16 15 80 310° 5 - 30.12 30.18 10 CLR None
2018-12-10 19:56 23 17 17 77 300° 5 - 30.11 30.17 10 CLR None
2018-12-10 18:56 24 17 17 74 320° 6 - 30.11 30.16 10 CLR 6-hr Min Temp (7pm): 24.1°F
6-hr Max Temp (7pm): 34.0°F
2018-12-10 17:56 26 17 18 68 350° 7 - 30.09 30.15 10 CLR None
2018-12-10 16:56 27 18 19 68 340° 8 - 30.09 30.15 10 CLR None
2018-12-10 15:56 31 18 23 58 330° 9 - 30.09 30.15 10 CLR None
2018-12-10 13:56 34 17 27 49 340° 9 - 30.08 30.14 10 CLR None
2018-12-10 12:56 33 16 25 48 320° 10 - 30.08 30.13 10 CLR 6-hr Min Temp (1pm): 24.1°F
6-hr Max Temp (1pm): 35.1°F
2018-12-10 11:56 32 17 25 53 350° 8 - 30.09 30.15 10 CLR None
2018-12-10 10:56 35 18 27 49 350° 10 - 30.10 30.16 10 CLR None
2018-12-10 09:56 32 19 21 58 360° 16 - 30.10 30.16 10 CLR None
2018-12-10 08:56 31 23 23 72 360° 9 - 30.09 30.14 10 CLR None
2018-12-10 07:56 25 20 17 80 330° 7 - 30.06 30.12 10 CLR None
2018-12-10 07:41 25 19 17 79 350° 7 - 30.06 - 10 SCT019 None
2018-12-10 06:56 25 20 16 80 340° 8 - 30.05 30.11 10 OVC019 6-hr Min Temp (7am): 16.0°F
6-hr Max Temp (7am): 26.1°F
2018-12-10 05:56 25 21 14 84 340° 13 - 30.05 30.10 10 OVC017 None
2018-12-10 04:56 21 17 15 84 300° 5 - 30.05 30.11 10 OVC017 None
2018-12-10 03:56 18 15 10 88 260° 6 - 30.05 30.11 10 OVC021 None
2018-12-10 03:45 18 14 11 85 250° 5 - 30.05 - 10 BKN021 None
2018-12-10 02:56 16 12 10 84 290° 3 - 30.07 30.13 10 SCT021 None
2018-12-10 02:19 18 12 9 78 260° 6 - 30.07 - 10 BKN021 None
2018-12-10 01:56 18 13 11 80 260° 5 - 30.07 30.13 10 CLR None
2018-12-10 00:56 19 14 14 80 310° 3 - 30.08 30.14 10 CLR 6-hr Min Temp (1am): 18.0°F
6-hr Max Temp (1am): 21.9°F
2018-12-09 23:56 18 13 11 80 310° 5 - 30.10 30.16 10 CLR 24-hr Min Temp (12am): 10.9°F
24-hr Max Temp (12am): 34.0°F
2018-12-09 22:56 19 13 12 76 320° 5 - 30.11 30.17 10 CLR None

Support USWX by starting your Amazon purchase here.